Onalaska, WI

9:22 AM CDT on May 06, 2015 (GMT -0500)
French Island | | Change Station
CLOSE
Current Station
Personal Weather Station
Location: La Crosse, WI
Elevation: 663 ft
Nearby Weather Stations
Active Advisory: Special Statement Active Notice: Public Information Statement

Elev 663 ft 43.87 °N, 91.28 °W | Updated 22 seconds ago

Overcast
Overcast
59.0 °F
Feels Like 59.0 °F
N
0.0
Wind Variable Wind from West
Gusts 0.0 mph

Today
High -- | Low -- °F
--% Chance of Precip.
Yesterday
High -- | Low -- °F
Precip. -- in
5:50 AM 8:13 PM
Waning Gibbous, 94% visible
Pressure 30.12 in
Visibility 5.0 miles
Clouds Overcast 700 ft
Dew Point 56 °F
Humidity 91%
Rainfall 0.00 in
Snow Depth Not available.
UV 2.0 out of 12
Pollen 9.60 out of 12
Air Quality Not available.
Flu Activity Local Activity
METAR KLSE 061353Z 13004KT 5SM BR OVC007 15/13 A3012 RMK AO2 SLP199 T01500128

More Conditions Fewer Conditions

Pressure 30.12 in
Visibility 5.0 miles
Clouds Overcast 700 ft
Dew Point 56 °F
Humidity 91%
Rainfall 0.00 in
Snow Depth Not available.
UV 2.0 out of 12
Pollen 9.60 out of 12
Air Quality Not available.
Flu Activity Local Activity
METAR KLSE 061353Z 13004KT 5SM BR OVC007 15/13 A3012 RMK AO2 SLP199 T01500128

More Conditions Fewer Conditions

10-Day Weather Forecast

Almanac

Astronomy

May. 06, 2015 Rise Set
Actual Time
Civil Twilight
Nautical Twilight
Astronomical Twilight
Moon
Length of Visible Light
Length of Day
Tomorrow will be .
, % of the Moon is Illuminated

Today's Extremes

State Highs State Lows

Community

WunderPhotos

Upload Photos

1,818,914 photos uploaded!

WunderBlogs® & News

Nearby

Air Quality

  Air Quality AQ Index Pollutant
Not available.

Snow Depth

Station Depth Elevation

Earthquake Activity

City Distance Mag. Time & Date
Minimum magnitude displayed is 2.5.

Coastal Water Temperatures

Place Temperature

Stations

Nearby Weather Stations

Station Location Temp. Windchill Dew Point Humidity Wind Precip. Elev Updated Type
                   
Special Statement
Statement as of 9:12 AM CDT on May 06, 2015

... Patchy fog rest of the morning...

The areas of dense fog across portions of the region have been
lifting... with an accompanying improvement in visibilities. The
improving trends will continue for the rest of the morning hours.
Motorists should still anticipate a few pockets of thick fog until
noon.


Rieck


912 am CDT Wed may 6 2015

... Patchy fog rest of the morning...

The areas of dense fog across portions of the region have been
lifting... with an accompanying improvement in visibilities. The
improving trends will continue for the rest of the morning hours.
Motorists should still anticipate a few pockets of thick fog until
noon.


Rieck